sensor_id;sensor_type;location;lat;lon;timestamp;P1;durP1;ratioP1;P2;durP2;ratioP2
49416;SDS011;35290;39.550;8.786;2023-06-19T00:00:24;7.50;;;4.07;;
49416;SDS011;35290;39.550;8.786;2023-06-19T00:02:49;7.15;;;4.13;;
49416;SDS011;35290;39.550;8.786;2023-06-19T00:05:15;7.50;;;4.28;;
49416;SDS011;35290;39.550;8.786;2023-06-19T00:07:40;8.88;;;4.28;;
49416;SDS011;35290;39.550;8.786;2023-06-19T00:10:08;7.32;;;4.07;;
49416;SDS011;35290;39.550;8.786;2023-06-19T00:12:33;6.57;;;4.35;;
49416;SDS011;35290;39.550;8.786;2023-06-19T00:14:59;8.45;;;4.32;;
49416;SDS011;35290;39.550;8.786;2023-06-19T00:17:24;6.93;;;4.63;;
49416;SDS011;35290;39.550;8.786;2023-06-19T00:19:52;7.75;;;4.45;;
49416;SDS011;35290;39.550;8.786;2023-06-19T00:22:17;9.38;;;4.65;;
49416;SDS011;35290;39.550;8.786;2023-06-19T00:24:43;7.22;;;4.57;;
49416;SDS011;35290;39.550;8.786;2023-06-19T00:27:08;9.25;;;4.43;;
49416;SDS011;35290;39.550;8.786;2023-06-19T00:29:37;8.15;;;4.60;;
49416;SDS011;35290;39.550;8.786;2023-06-19T00:32:02;8.88;;;4.75;;
49416;SDS011;35290;39.550;8.786;2023-06-19T00:34:28;9.88;;;4.65;;
49416;SDS011;35290;39.550;8.786;2023-06-19T00:36:54;8.85;;;4.55;;
49416;SDS011;35290;39.550;8.786;2023-06-19T00:39:23;11.15;;;5.20;;
49416;SDS011;35290;39.550;8.786;2023-06-19T00:41:49;9.25;;;5.15;;
49416;SDS011;35290;39.550;8.786;2023-06-19T00:44:16;9.77;;;5.00;;
49416;SDS011;35290;39.550;8.786;2023-06-19T00:46:41;10.35;;;5.20;;
49416;SDS011;35290;39.550;8.786;2023-06-19T00:49:07;10.15;;;5.13;;
49416;SDS011;35290;39.550;8.786;2023-06-19T00:51:32;9.18;;;4.55;;
49416;SDS011;35290;39.550;8.786;2023-06-19T00:53:58;10.98;;;5.13;;
49416;SDS011;35290;39.550;8.786;2023-06-19T00:56:23;9.90;;;4.72;;
49416;SDS011;35290;39.550;8.786;2023-06-19T00:58:48;9.07;;;4.90;;
49416;SDS011;35290;39.550;8.786;2023-06-19T01:01:14;6.50;;;4.40;;
49416;SDS011;35290;39.550;8.786;2023-06-19T01:03:39;6.03;;;4.55;;
49416;SDS011;35290;39.550;8.786;2023-06-19T01:06:05;6.63;;;4.53;;
49416;SDS011;35290;39.550;8.786;2023-06-19T01:11:12;10.25;;;4.45;;
49416;SDS011;35290;39.550;8.786;2023-06-19T01:13:41;7.75;;;4.45;;
49416;SDS011;35290;39.550;8.786;2023-06-19T01:16:09;6.68;;;4.00;;
49416;SDS011;35290;39.550;8.786;2023-06-19T01:18:35;6.57;;;3.90;;
49416;SDS011;35290;39.550;8.786;2023-06-19T01:21:11;6.65;;;3.72;;
49416;SDS011;35290;39.550;8.786;2023-06-19T01:23:37;7.50;;;3.78;;
49416;SDS011;35290;39.550;8.786;2023-06-19T01:26:02;8.75;;;3.95;;
49416;SDS011;35290;39.550;8.786;2023-06-19T01:28:27;7.82;;;4.18;;
49416;SDS011;35290;39.550;8.786;2023-06-19T01:30:53;7.20;;;4.03;;
49416;SDS011;35290;39.550;8.786;2023-06-19T01:33:23;11.23;;;4.20;;
49416;SDS011;35290;39.550;8.786;2023-06-19T01:35:51;6.05;;;4.20;;
49416;SDS011;35290;39.550;8.786;2023-06-19T01:38:16;6.50;;;4.18;;
49416;SDS011;35290;39.550;8.786;2023-06-19T01:40:42;9.13;;;4.60;;
49416;SDS011;35290;39.550;8.786;2023-06-19T01:43:08;7.50;;;3.78;;
49416;SDS011;35290;39.550;8.786;2023-06-19T01:45:33;6.25;;;4.10;;
49416;SDS011;35290;39.550;8.786;2023-06-19T01:47:59;7.03;;;3.78;;
49416;SDS011;35290;39.550;8.786;2023-06-19T01:50:24;5.15;;;4.00;;
49416;SDS011;35290;39.550;8.786;2023-06-19T01:52:50;6.85;;;4.05;;
49416;SDS011;35290;39.550;8.786;2023-06-19T01:55:16;4.95;;;4.07;;
49416;SDS011;35290;39.550;8.786;2023-06-19T01:57:41;8.80;;;4.15;;
49416;SDS011;35290;39.550;8.786;2023-06-19T02:00:07;5.38;;;3.90;;
49416;SDS011;35290;39.550;8.786;2023-06-19T02:02:35;8.25;;;4.03;;
49416;SDS011;35290;39.550;8.786;2023-06-19T02:05:01;6.53;;;3.88;;
49416;SDS011;35290;39.550;8.786;2023-06-19T02:07:26;6.50;;;3.95;;
49416;SDS011;35290;39.550;8.786;2023-06-19T02:09:51;7.32;;;4.32;;
49416;SDS011;35290;39.550;8.786;2023-06-19T02:12:17;4.80;;;3.70;;
49416;SDS011;35290;39.550;8.786;2023-06-19T02:14:42;8.10;;;4.18;;
49416;SDS011;35290;39.550;8.786;2023-06-19T02:17:07;9.30;;;3.95;;
49416;SDS011;35290;39.550;8.786;2023-06-19T02:19:33;7.75;;;4.88;;
49416;SDS011;35290;39.550;8.786;2023-06-19T02:21:58;7.95;;;4.18;;
49416;SDS011;35290;39.550;8.786;2023-06-19T02:24:23;6.88;;;4.18;;
49416;SDS011;35290;39.550;8.786;2023-06-19T02:26:49;6.15;;;4.03;;
49416;SDS011;35290;39.550;8.786;2023-06-19T02:29:15;7.97;;;4.10;;
49416;SDS011;35290;39.550;8.786;2023-06-19T02:31:41;5.43;;;4.00;;
49416;SDS011;35290;39.550;8.786;2023-06-19T02:34:08;8.25;;;4.47;;
49416;SDS011;35290;39.550;8.786;2023-06-19T02:36:34;5.97;;;4.00;;
49416;SDS011;35290;39.550;8.786;2023-06-19T02:39:01;7.65;;;4.10;;
49416;SDS011;35290;39.550;8.786;2023-06-19T02:41:26;7.90;;;3.80;;
49416;SDS011;35290;39.550;8.786;2023-06-19T02:43:51;6.93;;;3.85;;
49416;SDS011;35290;39.550;8.786;2023-06-19T02:46:16;5.03;;;3.70;;
49416;SDS011;35290;39.550;8.786;2023-06-19T02:48:42;4.63;;;3.80;;
49416;SDS011;35290;39.550;8.786;2023-06-19T02:51:08;6.18;;;3.97;;
49416;SDS011;35290;39.550;8.786;2023-06-19T02:53:33;8.05;;;3.83;;
49416;SDS011;35290;39.550;8.786;2023-06-19T02:55:59;10.63;;;3.80;;
49416;SDS011;35290;39.550;8.786;2023-06-19T02:58:24;5.45;;;3.60;;
49416;SDS011;35290;39.550;8.786;2023-06-19T03:00:51;5.00;;;3.65;;
49416;SDS011;35290;39.550;8.786;2023-06-19T03:03:17;5.13;;;3.50;;
49416;SDS011;35290;39.550;8.786;2023-06-19T03:05:43;5.82;;;3.50;;
49416;SDS011;35290;39.550;8.786;2023-06-19T03:08:09;7.07;;;3.72;;
49416;SDS011;35290;39.550;8.786;2023-06-19T03:10:34;4.55;;;3.65;;
49416;SDS011;35290;39.550;8.786;2023-06-19T03:13:00;4.53;;;3.67;;
49416;SDS011;35290;39.550;8.786;2023-06-19T03:15:25;5.15;;;3.58;;
49416;SDS011;35290;39.550;8.786;2023-06-19T03:17:52;6.35;;;3.80;;
49416;SDS011;35290;39.550;8.786;2023-06-19T03:20:17;4.13;;;3.30;;
49416;SDS011;35290;39.550;8.786;2023-06-19T03:22:42;6.43;;;3.72;;
49416;SDS011;35290;39.550;8.786;2023-06-19T03:25:08;6.40;;;3.50;;
49416;SDS011;35290;39.550;8.786;2023-06-19T03:27:33;6.90;;;3.67;;
49416;SDS011;35290;39.550;8.786;2023-06-19T03:29:59;5.57;;;3.45;;
49416;SDS011;35290;39.550;8.786;2023-06-19T03:32:24;4.55;;;3.78;;
49416;SDS011;35290;39.550;8.786;2023-06-19T03:34:50;4.45;;;3.35;;
49416;SDS011;35290;39.550;8.786;2023-06-19T03:37:15;5.60;;;3.40;;
49416;SDS011;35290;39.550;8.786;2023-06-19T03:39:41;4.88;;;3.55;;
49416;SDS011;35290;39.550;8.786;2023-06-19T03:42:08;5.57;;;3.53;;
49416;SDS011;35290;39.550;8.786;2023-06-19T03:44:34;7.13;;;3.47;;
49416;SDS011;35290;39.550;8.786;2023-06-19T03:47:00;6.45;;;3.45;;
49416;SDS011;35290;39.550;8.786;2023-06-19T03:49:25;7.30;;;3.80;;
49416;SDS011;35290;39.550;8.786;2023-06-19T03:51:51;5.68;;;3.83;;
49416;SDS011;35290;39.550;8.786;2023-06-19T03:54:16;6.35;;;3.88;;
49416;SDS011;35290;39.550;8.786;2023-06-19T03:56:42;7.43;;;3.80;;
49416;SDS011;35290;39.550;8.786;2023-06-19T03:59:07;6.88;;;3.53;;
49416;SDS011;35290;39.550;8.786;2023-06-19T04:01:32;6.53;;;4.07;;
49416;SDS011;35290;39.550;8.786;2023-06-19T04:03:57;5.53;;;3.55;;
49416;SDS011;35290;39.550;8.786;2023-06-19T04:06:24;5.57;;;3.92;;
49416;SDS011;35290;39.550;8.786;2023-06-19T04:08:49;6.53;;;4.20;;
49416;SDS011;35290;39.550;8.786;2023-06-19T04:11:14;8.43;;;3.90;;
49416;SDS011;35290;39.550;8.786;2023-06-19T04:13:39;5.60;;;3.60;;
49416;SDS011;35290;39.550;8.786;2023-06-19T04:16:06;6.78;;;3.50;;
49416;SDS011;35290;39.550;8.786;2023-06-19T04:18:31;5.78;;;3.70;;
49416;SDS011;35290;39.550;8.786;2023-06-19T04:20:56;5.88;;;3.63;;
49416;SDS011;35290;39.550;8.786;2023-06-19T04:23:21;8.20;;;3.53;;
49416;SDS011;35290;39.550;8.786;2023-06-19T04:25:47;5.20;;;3.70;;
49416;SDS011;35290;39.550;8.786;2023-06-19T04:28:12;5.20;;;3.47;;
49416;SDS011;35290;39.550;8.786;2023-06-19T04:30:37;8.55;;;3.50;;
49416;SDS011;35290;39.550;8.786;2023-06-19T04:33:05;4.47;;;2.90;;
49416;SDS011;35290;39.550;8.786;2023-06-19T04:35:31;6.95;;;3.53;;
49416;SDS011;35290;39.550;8.786;2023-06-19T04:37:57;4.22;;;2.95;;
49416;SDS011;35290;39.550;8.786;2023-06-19T04:40:26;3.90;;;2.90;;
49416;SDS011;35290;39.550;8.786;2023-06-19T04:42:51;3.47;;;2.97;;
49416;SDS011;35290;39.550;8.786;2023-06-19T04:45:19;4.13;;;3.00;;
49416;SDS011;35290;39.550;8.786;2023-06-19T04:47:44;5.05;;;3.38;;
49416;SDS011;35290;39.550;8.786;2023-06-19T04:50:09;5.85;;;3.38;;
49416;SDS011;35290;39.550;8.786;2023-06-19T04:52:35;5.90;;;3.35;;
49416;SDS011;35290;39.550;8.786;2023-06-19T04:55:00;8.52;;;4.05;;
49416;SDS011;35290;39.550;8.786;2023-06-19T04:57:25;8.88;;;3.10;;
49416;SDS011;35290;39.550;8.786;2023-06-19T04:59:51;7.97;;;3.17;;
49416;SDS011;35290;39.550;8.786;2023-06-19T05:02:16;4.88;;;3.30;;
49416;SDS011;35290;39.550;8.786;2023-06-19T05:04:41;7.82;;;3.40;;
49416;SDS011;35290;39.550;8.786;2023-06-19T05:07:08;4.38;;;3.10;;
49416;SDS011;35290;39.550;8.786;2023-06-19T05:09:35;3.97;;;2.90;;
49416;SDS011;35290;39.550;8.786;2023-06-19T05:12:00;7.32;;;3.00;;
49416;SDS011;35290;39.550;8.786;2023-06-19T05:14:26;5.30;;;2.90;;
49416;SDS011;35290;39.550;8.786;2023-06-19T05:16:52;5.70;;;3.13;;
49416;SDS011;35290;39.550;8.786;2023-06-19T05:19:18;4.45;;;2.90;;
49416;SDS011;35290;39.550;8.786;2023-06-19T05:21:43;5.35;;;3.45;;
49416;SDS011;35290;39.550;8.786;2023-06-19T05:24:09;4.07;;;2.75;;
49416;SDS011;35290;39.550;8.786;2023-06-19T05:26:34;4.65;;;3.13;;
49416;SDS011;35290;39.550;8.786;2023-06-19T05:28:59;6.63;;;3.00;;
49416;SDS011;35290;39.550;8.786;2023-06-19T05:31:24;5.10;;;2.95;;
49416;SDS011;35290;39.550;8.786;2023-06-19T05:33:50;5.18;;;3.05;;
49416;SDS011;35290;39.550;8.786;2023-06-19T05:36:15;6.18;;;3.15;;
49416;SDS011;35290;39.550;8.786;2023-06-19T05:38:40;4.57;;;2.80;;
49416;SDS011;35290;39.550;8.786;2023-06-19T05:41:06;5.82;;;2.95;;
49416;SDS011;35290;39.550;8.786;2023-06-19T05:43:31;5.50;;;2.80;;
49416;SDS011;35290;39.550;8.786;2023-06-19T05:45:57;4.60;;;2.80;;
49416;SDS011;35290;39.550;8.786;2023-06-19T05:48:24;8.07;;;2.88;;
49416;SDS011;35290;39.550;8.786;2023-06-19T05:50:50;12.18;;;3.10;;
49416;SDS011;35290;39.550;8.786;2023-06-19T05:53:15;8.52;;;3.20;;
49416;SDS011;35290;39.550;8.786;2023-06-19T05:55:40;5.33;;;2.80;;
49416;SDS011;35290;39.550;8.786;2023-06-19T05:58:06;11.60;;;3.40;;
49416;SDS011;35290;39.550;8.786;2023-06-19T06:00:31;3.45;;;2.70;;
49416;SDS011;35290;39.550;8.786;2023-06-19T06:02:57;5.40;;;2.60;;
49416;SDS011;35290;39.550;8.786;2023-06-19T06:05:25;3.65;;;2.80;;
49416;SDS011;35290;39.550;8.786;2023-06-19T06:07:50;4.70;;;2.70;;
49416;SDS011;35290;39.550;8.786;2023-06-19T06:10:15;5.73;;;3.47;;
49416;SDS011;35290;39.550;8.786;2023-06-19T06:12:42;8.07;;;3.17;;
49416;SDS011;35290;39.550;8.786;2023-06-19T06:15:07;4.85;;;3.22;;
49416;SDS011;35290;39.550;8.786;2023-06-19T06:17:33;7.85;;;3.13;;
49416;SDS011;35290;39.550;8.786;2023-06-19T06:19:58;7.28;;;3.28;;
49416;SDS011;35290;39.550;8.786;2023-06-19T06:22:24;4.63;;;3.30;;
49416;SDS011;35290;39.550;8.786;2023-06-19T06:24:49;9.10;;;3.30;;
49416;SDS011;35290;39.550;8.786;2023-06-19T06:27:14;9.02;;;3.55;;
49416;SDS011;35290;39.550;8.786;2023-06-19T06:29:40;9.88;;;3.55;;
49416;SDS011;35290;39.550;8.786;2023-06-19T06:32:05;4.80;;;3.07;;
49416;SDS011;35290;39.550;8.786;2023-06-19T06:34:32;5.60;;;2.90;;
49416;SDS011;35290;39.550;8.786;2023-06-19T06:36:57;6.55;;;3.00;;
49416;SDS011;35290;39.550;8.786;2023-06-19T06:39:23;6.30;;;3.60;;
49416;SDS011;35290;39.550;8.786;2023-06-19T06:41:48;11.13;;;3.55;;
49416;SDS011;35290;39.550;8.786;2023-06-19T06:44:14;10.40;;;3.55;;
49416;SDS011;35290;39.550;8.786;2023-06-19T06:46:39;7.93;;;3.38;;
49416;SDS011;35290;39.550;8.786;2023-06-19T06:49:05;10.85;;;3.05;;
49416;SDS011;35290;39.550;8.786;2023-06-19T06:51:30;5.57;;;3.30;;
49416;SDS011;35290;39.550;8.786;2023-06-19T06:53:56;5.47;;;3.38;;
49416;SDS011;35290;39.550;8.786;2023-06-19T06:56:21;11.23;;;3.20;;
49416;SDS011;35290;39.550;8.786;2023-06-19T06:58:46;10.98;;;3.38;;
49416;SDS011;35290;39.550;8.786;2023-06-19T07:01:12;8.20;;;3.15;;
49416;SDS011;35290;39.550;8.786;2023-06-19T07:03:38;9.38;;;3.40;;
49416;SDS011;35290;39.550;8.786;2023-06-19T07:06:04;8.82;;;3.40;;
49416;SDS011;35290;39.550;8.786;2023-06-19T07:08:29;10.80;;;3.38;;
49416;SDS011;35290;39.550;8.786;2023-06-19T07:10:55;8.55;;;3.30;;
49416;SDS011;35290;39.550;8.786;2023-06-19T07:13:20;7.22;;;3.28;;
49416;SDS011;35290;39.550;8.786;2023-06-19T07:15:45;4.07;;;3.03;;
49416;SDS011;35290;39.550;8.786;2023-06-19T07:18:11;9.18;;;3.13;;
49416;SDS011;35290;39.550;8.786;2023-06-19T07:20:36;14.93;;;3.80;;
49416;SDS011;35290;39.550;8.786;2023-06-19T07:23:01;4.70;;;3.03;;
49416;SDS011;35290;39.550;8.786;2023-06-19T07:25:27;4.43;;;3.30;;
49416;SDS011;35290;39.550;8.786;2023-06-19T07:27:52;7.13;;;3.20;;
49416;SDS011;35290;39.550;8.786;2023-06-19T07:30:17;6.38;;;2.97;;
49416;SDS011;35290;39.550;8.786;2023-06-19T07:32:43;18.42;;;2.95;;
49416;SDS011;35290;39.550;8.786;2023-06-19T07:35:08;13.10;;;3.70;;
49416;SDS011;35290;39.550;8.786;2023-06-19T07:37:34;23.15;;;3.75;;
49416;SDS011;35290;39.550;8.786;2023-06-19T07:39:59;17.92;;;3.30;;
49416;SDS011;35290;39.550;8.786;2023-06-19T07:42:25;24.35;;;3.42;;
49416;SDS011;35290;39.550;8.786;2023-06-19T07:44:51;16.85;;;3.95;;
49416;SDS011;35290;39.550;8.786;2023-06-19T07:47:17;21.70;;;3.53;;
49416;SDS011;35290;39.550;8.786;2023-06-19T07:49:45;14.60;;;3.80;;
49416;SDS011;35290;39.550;8.786;2023-06-19T07:52:11;13.55;;;3.20;;
49416;SDS011;35290;39.550;8.786;2023-06-19T07:54:36;12.18;;;3.08;;
49416;SDS011;35290;39.550;8.786;2023-06-19T07:57:02;16.98;;;3.65;;
49416;SDS011;35290;39.550;8.786;2023-06-19T07:59:27;11.60;;;2.80;;
49416;SDS011;35290;39.550;8.786;2023-06-19T08:01:52;8.35;;;2.70;;
49416;SDS011;35290;39.550;8.786;2023-06-19T08:04:18;9.43;;;2.50;;
49416;SDS011;35290;39.550;8.786;2023-06-19T08:06:43;17.17;;;2.97;;
49416;SDS011;35290;39.550;8.786;2023-06-19T08:09:08;14.32;;;3.03;;
49416;SDS011;35290;39.550;8.786;2023-06-19T08:11:33;14.15;;;2.75;;
49416;SDS011;35290;39.550;8.786;2023-06-19T08:14:00;8.23;;;2.67;;
49416;SDS011;35290;39.550;8.786;2023-06-19T08:16:25;7.88;;;2.67;;
49416;SDS011;35290;39.550;8.786;2023-06-19T08:18:51;9.30;;;3.05;;
49416;SDS011;35290;39.550;8.786;2023-06-19T08:21:16;7.85;;;2.80;;
49416;SDS011;35290;39.550;8.786;2023-06-19T08:23:42;5.72;;;2.80;;
49416;SDS011;35290;39.550;8.786;2023-06-19T08:26:08;7.28;;;2.95;;
49416;SDS011;35290;39.550;8.786;2023-06-19T08:28:34;9.05;;;2.95;;
49416;SDS011;35290;39.550;8.786;2023-06-19T08:30:59;9.77;;;2.90;;
49416;SDS011;35290;39.550;8.786;2023-06-19T08:33:25;8.32;;;2.78;;
49416;SDS011;35290;39.550;8.786;2023-06-19T08:35:50;18.60;;;3.22;;
49416;SDS011;35290;39.550;8.786;2023-06-19T08:38:15;8.38;;;3.03;;
49416;SDS011;35290;39.550;8.786;2023-06-19T08:40:44;8.18;;;2.97;;
49416;SDS011;35290;39.550;8.786;2023-06-19T08:43:09;9.85;;;3.10;;
49416;SDS011;35290;39.550;8.786;2023-06-19T08:45:35;18.27;;;3.25;;
49416;SDS011;35290;39.550;8.786;2023-06-19T08:48:03;26.83;;;4.50;;
49416;SDS011;35290;39.550;8.786;2023-06-19T08:50:32;87.93;;;7.32;;
49416;SDS011;35290;39.550;8.786;2023-06-19T08:52:57;64.95;;;7.22;;
49416;SDS011;35290;39.550;8.786;2023-06-19T08:55:23;28.70;;;4.28;;
49416;SDS011;35290;39.550;8.786;2023-06-19T08:57:49;35.53;;;4.95;;
49416;SDS011;35290;39.550;8.786;2023-06-19T09:00:27;20.92;;;4.00;;
49416;SDS011;35290;39.550;8.786;2023-06-19T09:02:59;14.50;;;3.95;;
49416;SDS011;35290;39.550;8.786;2023-06-19T09:07:57;15.88;;;3.97;;
49416;SDS011;35290;39.550;8.786;2023-06-19T09:10:23;17.08;;;3.30;;
49416;SDS011;35290;39.550;8.786;2023-06-19T09:13:01;15.32;;;3.75;;
49416;SDS011;35290;39.550;8.786;2023-06-19T09:15:45;6.88;;;2.90;;
49416;SDS011;35290;39.550;8.786;2023-06-19T09:18:10;6.32;;;2.30;;
49416;SDS011;35290;39.550;8.786;2023-06-19T09:20:40;9.35;;;2.65;;
49416;SDS011;35290;39.550;8.786;2023-06-19T09:23:12;8.05;;;2.78;;
49416;SDS011;35290;39.550;8.786;2023-06-19T09:25:47;9.52;;;2.95;;
49416;SDS011;35290;39.550;8.786;2023-06-19T09:28:18;5.82;;;2.85;;
49416;SDS011;35290;39.550;8.786;2023-06-19T09:30:54;5.88;;;2.60;;
49416;SDS011;35290;39.550;8.786;2023-06-19T09:33:19;4.57;;;2.72;;
49416;SDS011;35290;39.550;8.786;2023-06-19T09:35:45;3.85;;;2.28;;
49416;SDS011;35290;39.550;8.786;2023-06-19T09:38:11;5.15;;;2.40;;
49416;SDS011;35290;39.550;8.786;2023-06-19T09:40:37;8.15;;;2.70;;
49416;SDS011;35290;39.550;8.786;2023-06-19T09:43:03;3.83;;;2.30;;
49416;SDS011;35290;39.550;8.786;2023-06-19T09:45:29;7.30;;;2.63;;
49416;SDS011;35290;39.550;8.786;2023-06-19T09:47:56;4.85;;;2.20;;
49416;SDS011;35290;39.550;8.786;2023-06-19T09:50:22;8.25;;;2.70;;
49416;SDS011;35290;39.550;8.786;2023-06-19T09:52:48;9.60;;;2.50;;
49416;SDS011;35290;39.550;8.786;2023-06-19T09:55:17;3.97;;;2.50;;
49416;SDS011;35290;39.550;8.786;2023-06-19T09:57:43;4.50;;;2.22;;
49416;SDS011;35290;39.550;8.786;2023-06-19T10:00:09;6.28;;;2.38;;
49416;SDS011;35290;39.550;8.786;2023-06-19T10:02:41;8.57;;;2.30;;
49416;SDS011;35290;39.550;8.786;2023-06-19T10:05:06;5.30;;;2.20;;
49416;SDS011;35290;39.550;8.786;2023-06-19T10:07:37;8.60;;;2.33;;
49416;SDS011;35290;39.550;8.786;2023-06-19T10:10:05;6.03;;;2.58;;
49416;SDS011;35290;39.550;8.786;2023-06-19T10:12:47;3.88;;;2.10;;
49416;SDS011;35290;39.550;8.786;2023-06-19T10:15:22;9.45;;;2.60;;
49416;SDS011;35290;39.550;8.786;2023-06-19T10:17:51;6.03;;;2.22;;
49416;SDS011;35290;39.550;8.786;2023-06-19T10:20:28;11.63;;;2.65;;
49416;SDS011;35290;39.550;8.786;2023-06-19T10:22:57;4.35;;;2.25;;
49416;SDS011;35290;39.550;8.786;2023-06-19T10:25:24;9.68;;;2.22;;
49416;SDS011;35290;39.550;8.786;2023-06-19T10:27:52;8.20;;;2.33;;
49416;SDS011;35290;39.550;8.786;2023-06-19T10:30:18;4.00;;;2.30;;
49416;SDS011;35290;39.550;8.786;2023-06-19T10:32:47;4.80;;;2.47;;
49416;SDS011;35290;39.550;8.786;2023-06-19T10:35:13;5.97;;;2.67;;
49416;SDS011;35290;39.550;8.786;2023-06-19T10:37:39;7.30;;;2.70;;
49416;SDS011;35290;39.550;8.786;2023-06-19T10:40:05;5.18;;;2.50;;
49416;SDS011;35290;39.550;8.786;2023-06-19T10:42:41;10.57;;;2.70;;
49416;SDS011;35290;39.550;8.786;2023-06-19T10:45:08;6.50;;;2.38;;
49416;SDS011;35290;39.550;8.786;2023-06-19T10:47:34;9.18;;;2.65;;
49416;SDS011;35290;39.550;8.786;2023-06-19T10:49:59;5.03;;;2.65;;
49416;SDS011;35290;39.550;8.786;2023-06-19T10:52:25;6.88;;;2.70;;
49416;SDS011;35290;39.550;8.786;2023-06-19T10:54:53;5.15;;;2.47;;
49416;SDS011;35290;39.550;8.786;2023-06-19T10:57:25;8.05;;;2.80;;
49416;SDS011;35290;39.550;8.786;2023-06-19T10:59:51;6.85;;;2.90;;
49416;SDS011;35290;39.550;8.786;2023-06-19T11:02:17;5.60;;;2.75;;
49416;SDS011;35290;39.550;8.786;2023-06-19T11:04:43;3.75;;;2.55;;
49416;SDS011;35290;39.550;8.786;2023-06-19T11:07:08;7.75;;;3.40;;
49416;SDS011;35290;39.550;8.786;2023-06-19T11:09:34;9.60;;;2.92;;
49416;SDS011;35290;39.550;8.786;2023-06-19T11:11:59;6.70;;;3.00;;
49416;SDS011;35290;39.550;8.786;2023-06-19T11:14:28;6.32;;;3.10;;
49416;SDS011;35290;39.550;8.786;2023-06-19T11:16:53;8.98;;;2.92;;
49416;SDS011;35290;39.550;8.786;2023-06-19T11:19:20;7.70;;;2.72;;
49416;SDS011;35290;39.550;8.786;2023-06-19T11:21:49;7.13;;;2.80;;
49416;SDS011;35290;39.550;8.786;2023-06-19T11:24:15;5.28;;;2.90;;
49416;SDS011;35290;39.550;8.786;2023-06-19T11:26:41;4.35;;;2.45;;
49416;SDS011;35290;39.550;8.786;2023-06-19T11:31:47;5.95;;;2.90;;
49416;SDS011;35290;39.550;8.786;2023-06-19T11:34:13;9.23;;;3.00;;
49416;SDS011;35290;39.550;8.786;2023-06-19T11:36:38;10.02;;;3.15;;
49416;SDS011;35290;39.550;8.786;2023-06-19T11:39:04;6.03;;;2.78;;
49416;SDS011;35290;39.550;8.786;2023-06-19T11:41:34;8.82;;;3.15;;
49416;SDS011;35290;39.550;8.786;2023-06-19T11:43:59;6.28;;;3.13;;
49416;SDS011;35290;39.550;8.786;2023-06-19T11:46:28;7.57;;;2.80;;
49416;SDS011;35290;39.550;8.786;2023-06-19T11:48:53;6.97;;;3.50;;
49416;SDS011;35290;39.550;8.786;2023-06-19T11:51:18;6.05;;;2.60;;
49416;SDS011;35290;39.550;8.786;2023-06-19T11:53:44;6.85;;;2.90;;
49416;SDS011;35290;39.550;8.786;2023-06-19T11:56:09;9.65;;;3.13;;
49416;SDS011;35290;39.550;8.786;2023-06-19T11:58:34;6.25;;;3.10;;
49416;SDS011;35290;39.550;8.786;2023-06-19T12:01:00;4.35;;;2.90;;
49416;SDS011;35290;39.550;8.786;2023-06-19T12:03:25;8.57;;;3.20;;
49416;SDS011;35290;39.550;8.786;2023-06-19T12:05:50;4.78;;;2.95;;
49416;SDS011;35290;39.550;8.786;2023-06-19T12:08:16;10.70;;;2.78;;
49416;SDS011;35290;39.550;8.786;2023-06-19T12:10:41;7.15;;;2.95;;
49416;SDS011;35290;39.550;8.786;2023-06-19T12:13:06;4.07;;;2.90;;
49416;SDS011;35290;39.550;8.786;2023-06-19T12:15:31;4.90;;;2.83;;
49416;SDS011;35290;39.550;8.786;2023-06-19T12:17:57;4.22;;;2.78;;
49416;SDS011;35290;39.550;8.786;2023-06-19T12:20:23;6.40;;;2.90;;
49416;SDS011;35290;39.550;8.786;2023-06-19T12:22:48;4.60;;;2.88;;
49416;SDS011;35290;39.550;8.786;2023-06-19T12:25:14;7.50;;;2.67;;
49416;SDS011;35290;39.550;8.786;2023-06-19T12:27:40;5.38;;;2.88;;
49416;SDS011;35290;39.550;8.786;2023-06-19T12:30:06;6.78;;;3.15;;
49416;SDS011;35290;39.550;8.786;2023-06-19T12:32:32;8.82;;;3.13;;
49416;SDS011;35290;39.550;8.786;2023-06-19T12:34:58;7.53;;;2.88;;
49416;SDS011;35290;39.550;8.786;2023-06-19T12:37:23;6.95;;;2.85;;
49416;SDS011;35290;39.550;8.786;2023-06-19T12:39:52;7.82;;;2.72;;
49416;SDS011;35290;39.550;8.786;2023-06-19T12:42:17;6.55;;;2.90;;
49416;SDS011;35290;39.550;8.786;2023-06-19T12:44:43;8.00;;;2.72;;
49416;SDS011;35290;39.550;8.786;2023-06-19T12:47:09;9.80;;;3.50;;
49416;SDS011;35290;39.550;8.786;2023-06-19T12:49:36;9.55;;;2.67;;
49416;SDS011;35290;39.550;8.786;2023-06-19T12:52:01;6.07;;;2.60;;
49416;SDS011;35290;39.550;8.786;2023-06-19T12:54:26;14.65;;;2.97;;
49416;SDS011;35290;39.550;8.786;2023-06-19T12:56:52;11.23;;;2.90;;
49416;SDS011;35290;39.550;8.786;2023-06-19T12:59:17;6.22;;;2.63;;
49416;SDS011;35290;39.550;8.786;2023-06-19T13:01:43;4.85;;;2.50;;
49416;SDS011;35290;39.550;8.786;2023-06-19T13:04:08;7.30;;;2.80;;
49416;SDS011;35290;39.550;8.786;2023-06-19T13:06:33;10.07;;;3.13;;
49416;SDS011;35290;39.550;8.786;2023-06-19T13:08:59;8.40;;;3.00;;
49416;SDS011;35290;39.550;8.786;2023-06-19T13:11:24;6.25;;;2.80;;
49416;SDS011;35290;39.550;8.786;2023-06-19T13:13:50;14.60;;;4.30;;
49416;SDS011;35290;39.550;8.786;2023-06-19T13:16:15;7.07;;;3.10;;
49416;SDS011;35290;39.550;8.786;2023-06-19T13:18:44;11.93;;;2.90;;
49416;SDS011;35290;39.550;8.786;2023-06-19T13:21:09;7.57;;;2.60;;
49416;SDS011;35290;39.550;8.786;2023-06-19T13:23:34;6.22;;;2.60;;
49416;SDS011;35290;39.550;8.786;2023-06-19T13:25:59;7.50;;;3.20;;
49416;SDS011;35290;39.550;8.786;2023-06-19T13:28:25;5.03;;;3.00;;
49416;SDS011;35290;39.550;8.786;2023-06-19T13:30:50;6.90;;;3.03;;
49416;SDS011;35290;39.550;8.786;2023-06-19T13:33:16;8.63;;;2.95;;
49416;SDS011;35290;39.550;8.786;2023-06-19T13:35:41;10.15;;;2.70;;
49416;SDS011;35290;39.550;8.786;2023-06-19T13:38:07;10.50;;;2.97;;
49416;SDS011;35290;39.550;8.786;2023-06-19T13:40:32;9.52;;;2.92;;
49416;SDS011;35290;39.550;8.786;2023-06-19T13:42:57;6.68;;;3.10;;
49416;SDS011;35290;39.550;8.786;2023-06-19T13:45:24;6.10;;;2.65;;
49416;SDS011;35290;39.550;8.786;2023-06-19T13:47:50;8.32;;;3.00;;
49416;SDS011;35290;39.550;8.786;2023-06-19T13:50:16;7.43;;;3.05;;
49416;SDS011;35290;39.550;8.786;2023-06-19T13:52:45;9.73;;;3.28;;
49416;SDS011;35290;39.550;8.786;2023-06-19T13:55:11;12.38;;;3.03;;
49416;SDS011;35290;39.550;8.786;2023-06-19T13:57:36;9.18;;;2.92;;
49416;SDS011;35290;39.550;8.786;2023-06-19T14:00:02;6.93;;;3.05;;
49416;SDS011;35290;39.550;8.786;2023-06-19T14:02:28;5.95;;;2.90;;
49416;SDS011;35290;39.550;8.786;2023-06-19T14:04:53;7.70;;;3.00;;
49416;SDS011;35290;39.550;8.786;2023-06-19T14:07:19;4.93;;;2.80;;
49416;SDS011;35290;39.550;8.786;2023-06-19T14:09:46;8.85;;;3.20;;
49416;SDS011;35290;39.550;8.786;2023-06-19T14:12:13;6.95;;;3.10;;
49416;SDS011;35290;39.550;8.786;2023-06-19T14:14:38;4.90;;;3.22;;
49416;SDS011;35290;39.550;8.786;2023-06-19T14:17:03;9.25;;;3.10;;
49416;SDS011;35290;39.550;8.786;2023-06-19T14:19:29;11.80;;;3.05;;
49416;SDS011;35290;39.550;8.786;2023-06-19T14:21:54;6.38;;;2.90;;
49416;SDS011;35290;39.550;8.786;2023-06-19T14:24:19;9.13;;;3.30;;
49416;SDS011;35290;39.550;8.786;2023-06-19T14:26:45;8.88;;;2.90;;
49416;SDS011;35290;39.550;8.786;2023-06-19T14:29:10;8.38;;;3.45;;
49416;SDS011;35290;39.550;8.786;2023-06-19T14:31:38;9.30;;;3.83;;
49416;SDS011;35290;39.550;8.786;2023-06-19T14:34:04;6.73;;;3.00;;
49416;SDS011;35290;39.550;8.786;2023-06-19T14:36:29;6.47;;;3.33;;
49416;SDS011;35290;39.550;8.786;2023-06-19T14:38:54;6.65;;;3.28;;
49416;SDS011;35290;39.550;8.786;2023-06-19T14:41:20;6.13;;;2.85;;
49416;SDS011;35290;39.550;8.786;2023-06-19T14:43:45;6.38;;;3.17;;
49416;SDS011;35290;39.550;8.786;2023-06-19T14:46:10;6.35;;;3.17;;